createdAt,value
2017-08-05T00:00:27.362Z,100617.57
2017-08-05T00:02:54.746Z,100621.70
2017-08-05T00:05:22.146Z,100621.34
2017-08-05T00:07:49.547Z,100616.98
2017-08-05T00:10:16.939Z,100621.41
2017-08-05T00:12:44.327Z,100615.63
2017-08-05T00:15:11.714Z,100615.98
2017-08-05T00:17:39.106Z,100608.31
2017-08-05T00:20:06.494Z,100611.61
2017-08-05T00:22:33.899Z,100613.84
2017-08-05T00:25:01.299Z,100608.30
2017-08-05T00:27:28.675Z,100616.28
2017-08-05T00:29:56.076Z,100620.14
2017-08-05T00:32:23.459Z,100621.32
2017-08-05T00:34:50.855Z,100621.66
2017-08-05T00:37:18.246Z,100620.89
2017-08-05T00:39:45.635Z,100612.91
2017-08-05T00:42:13.022Z,100611.98
2017-08-05T00:44:40.419Z,100608.28
2017-08-05T00:47:07.825Z,100604.20
2017-08-05T00:49:35.198Z,100604.84
2017-08-05T00:52:02.595Z,100600.90
2017-08-05T00:54:29.998Z,100597.62
2017-08-05T00:56:57.388Z,100593.59
2017-08-05T00:59:24.784Z,100597.40
2017-08-05T01:01:52.168Z,100597.94
2017-08-05T01:04:19.558Z,100592.53
2017-08-05T01:06:46.951Z,100598.67
2017-08-05T01:09:14.350Z,100591.52
2017-08-05T01:11:41.731Z,100595.52
2017-08-05T01:14:09.118Z,100602.70
2017-08-05T01:16:36.507Z,100605.78
2017-08-05T01:19:03.899Z,100601.30
2017-08-05T01:21:31.286Z,100602.62
2017-08-05T01:23:58.683Z,100603.48
2017-08-05T01:26:26.284Z,100611.36
2017-08-05T01:28:53.679Z,100608.05
2017-08-05T01:31:21.066Z,100603.72
2017-08-05T01:33:48.455Z,100608.41
2017-08-05T01:36:15.854Z,100615.50
2017-08-05T01:38:43.248Z,100612.34
2017-08-05T01:41:10.631Z,100612.10
2017-08-05T01:43:38.246Z,100612.61
2017-08-05T01:46:05.635Z,100611.00
2017-08-05T01:48:33.031Z,100605.24
2017-08-05T01:51:00.423Z,100601.48
2017-08-05T01:53:27.819Z,100610.31
2017-08-05T01:55:55.211Z,100608.20
2017-08-05T01:58:22.601Z,100609.59
2017-08-05T02:00:49.985Z,100596.53
2017-08-05T02:03:17.380Z,100607.38
2017-08-05T02:05:44.981Z,100610.52
2017-08-05T02:08:12.383Z,100598.80
2017-08-05T02:10:39.771Z,100612.60
2017-08-05T02:13:07.154Z,100615.65
2017-08-05T02:15:34.765Z,100615.61
2017-08-05T02:18:02.149Z,100614.00
2017-08-05T02:20:29.550Z,100611.97
2017-08-05T02:22:56.934Z,100603.86
2017-08-05T02:25:24.335Z,100607.33
2017-08-05T02:27:51.734Z,100615.43
2017-08-05T02:30:19.127Z,100611.71
2017-08-05T02:32:46.540Z,100611.67
2017-08-05T02:35:13.928Z,100610.86
2017-08-05T02:37:41.312Z,100615.67
2017-08-05T02:40:08.709Z,100614.76
2017-08-05T02:42:36.095Z,100608.73
2017-08-05T02:45:03.487Z,100599.58
2017-08-05T02:47:30.875Z,100599.27
2017-08-05T02:49:58.351Z,100596.63
2017-08-05T02:52:25.735Z,100603.70
2017-08-05T02:54:53.139Z,100607.50
2017-08-05T02:57:20.524Z,100611.02
2017-08-05T02:59:47.926Z,100609.08
2017-08-05T03:02:15.338Z,100609.79
2017-08-05T03:04:42.739Z,100610.55
2017-08-05T03:07:10.138Z,100623.78
2017-08-05T03:09:37.528Z,100618.09
2017-08-05T03:12:04.920Z,100619.28
2017-08-05T03:14:32.303Z,100612.21
2017-08-05T03:16:59.699Z,100605.80
2017-08-05T03:19:27.100Z,100597.43
2017-08-05T03:21:54.494Z,100604.78
2017-08-05T03:24:21.879Z,100605.32
2017-08-05T03:26:49.266Z,100601.31
2017-08-05T03:29:16.665Z,100605.14
2017-08-05T03:31:44.054Z,100607.73
2017-08-05T03:34:11.445Z,100615.96
2017-08-05T03:36:38.828Z,100617.55
2017-08-05T03:39:06.219Z,100606.82
2017-08-05T03:41:33.630Z,100601.12
2017-08-05T03:44:01.019Z,100604.97
2017-08-05T03:46:28.402Z,100616.34
2017-08-05T03:48:55.790Z,100618.09
2017-08-05T03:51:23.195Z,100618.13
2017-08-05T03:53:50.582Z,100614.98
2017-08-05T03:56:17.993Z,100610.92
2017-08-05T03:58:45.379Z,100614.90
2017-08-05T04:01:12.786Z,100619.23
2017-08-05T04:03:40.167Z,100612.17
2017-08-05T04:06:07.552Z,100607.61
2017-08-05T04:08:34.970Z,100607.17
2017-08-05T04:11:02.679Z,100603.23
2017-08-05T04:13:30.053Z,100602.71
2017-08-05T04:15:57.447Z,100608.83
2017-08-05T04:18:24.839Z,100612.88
2017-08-05T04:20:52.234Z,100618.07
2017-08-05T04:23:19.627Z,100621.89
2017-08-05T04:25:47.014Z,100631.37
2017-08-05T04:28:14.420Z,100630.34
2017-08-05T04:30:41.807Z,100626.11
2017-08-05T04:33:09.227Z,100624.53
2017-08-05T04:35:36.616Z,100620.66
2017-08-05T04:38:04.000Z,100621.54
2017-08-05T04:40:31.411Z,100630.69
2017-08-05T04:42:58.794Z,100631.58
2017-08-05T04:45:26.190Z,100637.75
2017-08-05T04:47:53.575Z,100642.25
2017-08-05T04:50:20.971Z,100634.45
2017-08-05T04:52:48.380Z,100629.47
2017-08-05T04:55:15.767Z,100626.87
2017-08-05T04:57:43.168Z,100612.95
2017-08-05T05:00:10.563Z,100599.19
2017-08-05T05:02:37.946Z,100616.61
2017-08-05T05:05:05.339Z,100618.65
2017-08-05T05:07:32.730Z,100622.53
2017-08-05T05:10:00.122Z,100621.43
2017-08-05T05:12:27.511Z,100632.84
2017-08-05T05:14:55.179Z,100638.53
2017-08-05T05:17:22.570Z,100629.14
2017-08-05T05:19:49.979Z,100634.79
2017-08-05T05:22:17.366Z,100633.26
2017-08-05T05:24:44.763Z,100634.47
2017-08-05T05:27:12.154Z,100628.45
2017-08-05T05:29:39.546Z,100632.38
2017-08-05T05:32:06.933Z,100635.11
2017-08-05T05:34:34.332Z,100625.67
2017-08-05T05:37:01.711Z,100616.05
2017-08-05T05:39:29.099Z,100614.03
2017-08-05T05:41:56.491Z,100628.68
2017-08-05T05:44:23.878Z,100633.48
2017-08-05T05:46:51.278Z,100638.91
2017-08-05T05:49:18.670Z,100643.57
2017-08-05T05:51:46.067Z,100634.23
2017-08-05T05:54:13.463Z,100637.94
2017-08-05T05:56:40.852Z,100633.34
2017-08-05T05:59:08.247Z,100642.09
2017-08-05T06:01:35.643Z,100647.36
2017-08-05T06:04:03.039Z,100642.18
2017-08-05T06:06:30.443Z,100636.30
2017-08-05T06:08:57.855Z,100623.63
2017-08-05T06:11:25.255Z,100630.89
2017-08-05T06:13:52.646Z,100643.06
2017-08-05T06:16:20.039Z,100637.47
2017-08-05T06:18:47.428Z,100639.45
2017-08-05T06:21:14.839Z,100634.30
2017-08-05T06:23:42.227Z,100640.59
2017-08-05T06:26:09.615Z,100631.98
2017-08-05T06:28:37.011Z,100624.45
2017-08-05T06:31:04.394Z,100633.61
2017-08-05T06:33:31.794Z,100629.77
2017-08-05T06:35:59.182Z,100630.50
2017-08-05T06:38:26.580Z,100621.80
2017-08-05T06:40:53.966Z,100621.38
2017-08-05T06:43:21.364Z,100620.69
2017-08-05T06:45:48.755Z,100622.87
2017-08-05T06:48:16.156Z,100612.10
2017-08-05T06:50:43.546Z,100613.23
2017-08-05T06:53:10.947Z,100617.89
2017-08-05T06:55:38.339Z,100609.38
2017-08-05T06:58:05.738Z,100606.98
2017-08-05T07:00:33.140Z,100592.20
2017-08-05T07:03:00.533Z,100591.41
2017-08-05T07:05:27.918Z,100586.36
2017-08-05T07:07:55.314Z,100585.30
2017-08-05T07:10:22.973Z,100602.55
2017-08-05T07:12:50.362Z,100607.14
2017-08-05T07:15:17.755Z,100605.86
2017-08-05T07:17:45.144Z,100608.11
2017-08-05T07:20:12.536Z,100614.17
2017-08-05T07:22:39.927Z,100621.14
2017-08-05T07:25:07.313Z,100628.48
2017-08-05T07:27:34.714Z,100621.67
2017-08-05T07:30:02.105Z,100634.43
2017-08-05T07:32:29.499Z,100627.32
2017-08-05T07:34:56.911Z,100633.89
2017-08-05T07:37:24.425Z,100637.92
2017-08-05T07:39:51.808Z,100640.77
2017-08-05T07:42:19.194Z,100625.81
2017-08-05T07:44:46.590Z,100622.45
2017-08-05T07:47:13.994Z,100635.25
2017-08-05T07:49:41.663Z,100650.09
2017-08-05T07:52:09.063Z,100633.35
2017-08-05T07:54:36.457Z,100629.41
2017-08-05T07:57:03.872Z,100618.18
2017-08-05T07:59:31.254Z,100615.17
2017-08-05T08:01:58.639Z,100614.84
2017-08-05T08:04:26.047Z,100619.11
2017-08-05T08:06:54.306Z,100608.48
2017-08-05T08:09:21.694Z,100616.46
2017-08-05T08:11:49.094Z,100625.36
2017-08-05T08:14:16.486Z,100632.02
2017-08-05T08:16:43.879Z,100616.33
2017-08-05T08:19:11.274Z,100603.52
2017-08-05T08:21:38.675Z,100606.92
2017-08-05T08:24:06.063Z,100623.21
2017-08-05T08:26:33.470Z,100631.91
2017-08-05T08:29:00.854Z,100628.13
2017-08-05T08:31:28.247Z,100635.09
2017-08-05T08:33:55.651Z,100627.95
2017-08-05T08:36:23.039Z,100629.44
2017-08-05T08:38:50.430Z,100643.24
2017-08-05T08:41:17.858Z,100647.86
2017-08-05T08:43:45.255Z,100646.47
2017-08-05T08:46:12.651Z,100638.47
2017-08-05T08:48:40.314Z,100648.11
2017-08-05T08:51:07.831Z,100654.97
2017-08-05T08:53:35.211Z,100651.19
2017-08-05T08:56:02.610Z,100660.23
2017-08-05T08:58:29.993Z,100658.89
2017-08-05T09:00:57.394Z,100662.48
2017-08-05T09:03:24.779Z,100654.84
2017-08-05T09:05:52.179Z,100650.45
2017-08-05T09:08:19.562Z,100659.91
2017-08-05T09:10:46.961Z,100662.59
2017-08-05T09:13:14.349Z,100663.43
2017-08-05T09:15:41.742Z,100671.88
2017-08-05T09:18:09.128Z,100673.58
2017-08-05T09:20:36.519Z,100666.36
2017-08-05T09:23:03.912Z,100662.50
2017-08-05T09:25:31.309Z,100653.73
2017-08-05T09:27:58.691Z,100638.21
2017-08-05T09:30:26.091Z,100639.41
2017-08-05T09:32:53.490Z,100643.17
2017-08-05T09:35:20.886Z,100647.37
2017-08-05T09:37:48.287Z,100647.81
2017-08-05T09:40:15.681Z,100654.50
2017-08-05T09:42:43.071Z,100654.59
2017-08-05T09:45:10.470Z,100643.22
2017-08-05T09:47:37.855Z,100647.55
2017-08-05T09:50:05.516Z,100648.78
2017-08-05T09:52:32.902Z,100651.38
2017-08-05T09:55:00.293Z,100653.84
2017-08-05T09:57:27.684Z,100656.41
2017-08-05T09:59:55.086Z,100652.73
2017-08-05T10:02:22.486Z,100655.34
2017-08-05T10:04:49.873Z,100660.45
2017-08-05T10:07:17.267Z,100662.79
2017-08-05T10:09:44.655Z,100671.07
2017-08-05T10:12:12.050Z,100672.03
2017-08-05T10:14:39.444Z,100667.73
2017-08-05T10:17:06.840Z,100661.52
2017-08-05T10:19:34.221Z,100655.94
2017-08-05T10:22:01.620Z,100644.50
2017-08-05T10:24:29.008Z,100633.70
2017-08-05T10:26:56.399Z,100625.22
2017-08-05T10:29:23.790Z,100628.98
2017-08-05T10:31:51.194Z,100634.59
2017-08-05T10:34:18.582Z,100644.37
2017-08-05T10:36:45.981Z,100641.52
2017-08-05T10:39:13.369Z,100646.70
2017-08-05T10:41:40.759Z,100641.59
2017-08-05T10:44:08.160Z,100637.97
2017-08-05T10:46:35.550Z,100634.80
2017-08-05T10:49:02.945Z,100624.47
2017-08-05T10:51:30.328Z,100627.40
2017-08-05T10:53:57.736Z,100621.62
2017-08-05T10:56:25.114Z,100623.75
2017-08-05T10:58:52.507Z,100628.90
2017-08-05T11:01:19.910Z,100620.98
2017-08-05T11:03:47.301Z,100607.89
2017-08-05T11:06:14.682Z,100616.62
2017-08-05T11:08:42.105Z,100620.14
2017-08-05T11:11:09.472Z,100623.94
2017-08-05T11:13:36.906Z,100634.85
2017-08-05T11:16:04.290Z,100634.42
2017-08-05T11:18:31.686Z,100645.55
2017-08-05T11:20:59.072Z,100656.39
2017-08-05T11:23:26.486Z,100657.31
2017-08-05T11:25:53.879Z,100656.11
2017-08-05T11:28:21.262Z,100647.36
2017-08-05T11:30:48.658Z,100639.41
2017-08-05T11:33:16.050Z,100635.86
2017-08-05T11:35:43.441Z,100648.39
2017-08-05T11:38:11.613Z,100651.49
2017-08-05T11:40:39.006Z,100656.11
2017-08-05T11:43:06.402Z,100648.05
2017-08-05T11:45:33.811Z,100646.62
2017-08-05T11:48:01.203Z,100654.17
2017-08-05T11:50:28.635Z,100656.02
2017-08-05T11:52:56.026Z,100660.73
2017-08-05T11:55:23.434Z,100665.43
2017-08-05T11:57:50.821Z,100665.78
2017-08-05T12:00:18.222Z,100658.15
2017-08-05T12:02:45.619Z,100659.25
2017-08-05T12:05:13.014Z,100660.99
2017-08-05T12:07:40.398Z,100662.25
2017-08-05T12:10:07.796Z,100657.70
2017-08-05T12:12:35.187Z,100639.31
2017-08-05T12:15:02.579Z,100623.09
2017-08-05T12:17:29.962Z,100616.92
2017-08-05T12:19:57.353Z,100624.98
2017-08-05T12:22:24.902Z,100641.91
2017-08-05T12:24:52.291Z,100640.55
2017-08-05T12:27:19.686Z,100635.39
2017-08-05T12:29:47.076Z,100636.75
2017-08-05T12:32:14.474Z,100652.64
2017-08-05T12:34:41.851Z,100648.45
2017-08-05T12:37:09.247Z,100648.58
2017-08-05T12:39:36.655Z,100632.75
2017-08-05T12:42:04.094Z,100636.69
2017-08-05T12:44:31.485Z,100645.50
2017-08-05T12:46:58.919Z,100638.07
2017-08-05T12:49:26.317Z,100639.67
2017-08-05T12:51:53.724Z,100628.88
2017-08-05T12:54:21.139Z,100644.67
2017-08-05T12:56:48.577Z,100642.03
2017-08-05T12:59:15.973Z,100638.58
2017-08-05T13:01:43.388Z,100639.03
2017-08-05T13:04:10.803Z,100639.50
2017-08-05T13:06:38.205Z,100651.97
2017-08-05T13:09:05.960Z,100649.95
2017-08-05T13:11:33.366Z,100651.31
2017-08-05T13:14:00.762Z,100649.58
2017-08-05T13:16:28.154Z,100641.41
2017-08-05T13:18:55.540Z,100649.92
2017-08-05T13:21:22.926Z,100654.70
2017-08-05T13:23:50.328Z,100655.86
2017-08-05T13:26:17.720Z,100660.69
2017-08-05T13:31:24.522Z,100652.20
2017-08-05T13:33:51.924Z,100646.86
2017-08-05T13:36:19.316Z,100649.98
2017-08-05T13:38:46.707Z,100645.73
2017-08-05T13:41:14.103Z,100647.91
2017-08-05T13:43:41.490Z,100645.31
2017-08-05T13:46:08.890Z,100642.61
2017-08-05T13:48:36.290Z,100643.97
2017-08-05T13:51:03.706Z,100642.77
2017-08-05T13:53:31.095Z,100639.12
2017-08-05T13:55:58.478Z,100643.36
2017-08-05T13:58:25.902Z,100644.44
2017-08-05T14:00:53.313Z,100642.10
2017-08-05T14:03:20.705Z,100646.80
2017-08-05T14:05:48.320Z,100647.83
2017-08-05T14:08:15.708Z,100647.03
2017-08-05T14:10:43.090Z,100641.73
2017-08-05T14:13:10.483Z,100639.43
2017-08-05T14:15:37.884Z,100640.77
2017-08-05T14:18:05.362Z,100629.83
2017-08-05T14:20:32.733Z,100618.64
2017-08-05T14:23:00.127Z,100616.77
2017-08-05T14:25:27.510Z,100615.08
2017-08-05T14:27:54.906Z,100609.39
2017-08-05T14:30:22.295Z,100622.37
2017-08-05T14:32:49.698Z,100616.91
2017-08-05T14:35:17.080Z,100620.75
2017-08-05T14:37:44.476Z,100618.20
2017-08-05T14:40:11.854Z,100619.80
2017-08-05T14:42:39.257Z,100625.27
2017-08-05T14:45:06.651Z,100625.59
2017-08-05T14:47:34.043Z,100621.13
2017-08-05T14:50:01.643Z,100626.57
2017-08-05T14:52:29.038Z,100621.32
2017-08-05T14:54:56.427Z,100614.55
2017-08-05T14:57:23.823Z,100616.55
2017-08-05T14:59:51.208Z,100620.00
2017-08-05T15:02:18.615Z,100625.91
2017-08-05T15:04:46.010Z,100630.73
2017-08-05T15:07:13.404Z,100631.30
2017-08-05T15:09:40.803Z,100638.59
2017-08-05T15:12:08.195Z,100638.13
2017-08-05T15:14:35.594Z,100658.49
2017-08-05T15:17:02.983Z,100662.37
2017-08-05T15:19:30.592Z,100674.53
2017-08-05T15:21:57.983Z,100688.95
2017-08-05T15:24:25.386Z,100694.85
2017-08-05T15:26:52.779Z,100693.05
2017-08-05T15:29:20.187Z,100694.69
2017-08-05T15:31:47.587Z,100702.27
2017-08-05T15:34:15.001Z,100697.33
2017-08-05T15:36:42.423Z,100704.11
2017-08-05T15:39:09.823Z,100709.01
2017-08-05T15:41:37.216Z,100697.46
2017-08-05T15:44:04.678Z,100694.35
2017-08-05T15:46:32.123Z,100692.52
2017-08-05T15:48:59.523Z,100683.20
2017-08-05T15:51:26.917Z,100686.05
2017-08-05T15:53:54.299Z,100690.69
2017-08-05T15:56:21.695Z,100687.63
2017-08-05T15:58:49.087Z,100688.69
2017-08-05T16:01:16.499Z,100694.48
2017-08-05T16:03:43.899Z,100696.78
2017-08-05T16:06:12.155Z,100698.00
2017-08-05T16:08:39.539Z,100694.22
2017-08-05T16:11:06.956Z,100696.02
2017-08-05T16:13:34.352Z,100696.62
2017-08-05T16:16:01.761Z,100697.72
2017-08-05T16:18:29.178Z,100699.05
2017-08-05T16:20:56.550Z,100703.12
2017-08-05T16:23:23.947Z,100701.52
2017-08-05T16:25:51.335Z,100705.00
2017-08-05T16:28:18.723Z,100704.70
2017-08-05T16:30:46.123Z,100712.72
2017-08-05T16:33:13.514Z,100714.08
2017-08-05T16:35:40.915Z,100707.79
2017-08-05T16:38:11.370Z,100713.88
2017-08-05T16:40:38.784Z,100715.50
2017-08-05T16:43:06.168Z,100724.39
2017-08-05T16:45:33.566Z,100731.87
2017-08-05T16:48:00.951Z,100735.55
2017-08-05T16:50:28.402Z,100733.17
2017-08-05T16:52:55.791Z,100732.04
2017-08-05T16:55:23.199Z,100736.48
2017-08-05T16:57:50.592Z,100733.41
2017-08-05T17:00:18.014Z,100738.96
2017-08-05T17:02:45.418Z,100731.77
2017-08-05T17:05:12.800Z,100733.88
2017-08-05T17:07:40.202Z,100744.03
2017-08-05T17:10:07.590Z,100741.47
2017-08-05T17:12:34.995Z,100744.61
2017-08-05T17:15:02.399Z,100748.37
2017-08-05T17:17:29.811Z,100755.39
2017-08-05T17:19:57.196Z,100766.09
2017-08-05T17:22:24.599Z,100774.99
2017-08-05T17:24:51.999Z,100763.25
2017-08-05T17:27:19.387Z,100762.66
2017-08-05T17:29:46.788Z,100773.54
2017-08-05T17:32:14.187Z,100778.27
2017-08-05T17:34:41.575Z,100769.13
2017-08-05T17:37:08.971Z,100770.00
2017-08-05T17:39:36.359Z,100763.73
2017-08-05T17:42:03.915Z,100768.73
2017-08-05T17:44:31.306Z,100772.19
2017-08-05T17:46:58.722Z,100762.25
2017-08-05T17:49:26.117Z,100772.55
2017-08-05T17:51:53.506Z,100767.88
2017-08-05T17:54:20.939Z,100776.31
2017-08-05T17:56:48.322Z,100770.13
2017-08-05T17:59:15.715Z,100774.78
2017-08-05T18:01:43.110Z,100773.44
2017-08-05T18:04:10.507Z,100772.19
2017-08-05T18:06:37.899Z,100769.39
2017-08-05T18:09:05.295Z,100779.50
2017-08-05T18:11:32.685Z,100784.64
2017-08-05T18:14:00.083Z,100781.61
2017-08-05T18:16:27.488Z,100789.86
2017-08-05T18:18:54.904Z,100787.00
2017-08-05T18:21:22.299Z,100788.17
2017-08-05T18:23:49.688Z,100786.16
2017-08-05T18:26:17.079Z,100783.97
2017-08-05T18:28:44.475Z,100780.69
2017-08-05T18:31:11.880Z,100788.42
2017-08-05T18:33:39.272Z,100802.47
2017-08-05T18:36:06.676Z,100806.33
2017-08-05T18:38:34.067Z,100807.84
2017-08-05T18:41:01.475Z,100810.95
2017-08-05T18:43:28.867Z,100813.11
2017-08-05T18:45:56.263Z,100809.92
2017-08-05T18:48:23.661Z,100816.97
2017-08-05T18:50:51.042Z,100820.91
2017-08-05T18:53:18.448Z,100819.84
2017-08-05T18:55:45.844Z,100831.72
2017-08-05T18:58:13.239Z,100827.36
2017-08-05T19:00:40.636Z,100831.91
2017-08-05T19:03:08.022Z,100827.20
2017-08-05T19:05:35.423Z,100832.23
2017-08-05T19:08:02.806Z,100833.48
2017-08-05T19:10:30.208Z,100837.16
2017-08-05T19:12:57.595Z,100849.02
2017-08-05T19:15:24.986Z,100855.75
2017-08-05T19:17:52.382Z,100856.16
2017-08-05T19:20:19.783Z,100863.69
2017-08-05T19:22:47.174Z,100868.86
2017-08-05T19:25:14.559Z,100869.66
2017-08-05T19:27:41.951Z,100870.63
2017-08-05T19:30:09.352Z,100869.84
2017-08-05T19:32:36.744Z,100871.14
2017-08-05T19:35:04.150Z,100865.27
2017-08-05T19:37:31.538Z,100865.95
2017-08-05T19:39:58.930Z,100875.64
2017-08-05T19:42:26.340Z,100875.16
2017-08-05T19:44:53.741Z,100875.36
2017-08-05T19:47:21.126Z,100873.72
2017-08-05T19:49:48.516Z,100872.52
2017-08-05T19:52:15.920Z,100879.74
2017-08-05T19:54:43.323Z,100882.70
2017-08-05T19:57:10.719Z,100880.28
2017-08-05T19:59:38.116Z,100885.05
2017-08-05T20:02:05.535Z,100892.84
2017-08-05T20:04:32.919Z,100899.04
2017-08-05T20:07:00.325Z,100896.27
2017-08-05T20:09:27.720Z,100901.55
2017-08-05T20:11:55.119Z,100900.38
2017-08-05T20:14:22.511Z,100899.73
2017-08-05T20:16:49.907Z,100903.46
2017-08-05T20:19:17.303Z,100908.78
2017-08-05T20:21:44.702Z,100910.87
2017-08-05T20:24:12.094Z,100906.22
2017-08-05T20:26:39.482Z,100913.63
2017-08-05T20:29:06.899Z,100908.77
2017-08-05T20:31:34.290Z,100904.64
2017-08-05T20:34:01.714Z,100912.48
2017-08-05T20:36:29.113Z,100917.19
2017-08-05T20:38:56.507Z,100919.27
2017-08-05T20:41:23.891Z,100917.63
2017-08-05T20:43:51.313Z,100921.97
2017-08-05T20:46:18.713Z,100926.03
2017-08-05T20:48:46.124Z,100922.09
2017-08-05T20:51:13.507Z,100922.33
2017-08-05T20:53:40.919Z,100928.89
2017-08-05T20:56:08.307Z,100930.76
2017-08-05T20:58:35.778Z,100923.72
2017-08-05T21:01:03.175Z,100930.48
2017-08-05T21:03:30.593Z,100936.86
2017-08-05T21:05:57.979Z,100940.07
2017-08-05T21:08:25.447Z,100942.07
2017-08-05T21:10:52.837Z,100941.01
2017-08-05T21:13:20.223Z,100951.38
2017-08-05T21:15:47.624Z,100950.73
2017-08-05T21:18:15.022Z,100957.42
2017-08-05T21:20:42.409Z,100961.34
2017-08-05T21:23:09.809Z,100968.92
2017-08-05T21:25:37.194Z,100971.18
2017-08-05T21:28:04.602Z,100976.91
2017-08-05T21:30:31.990Z,100979.55
2017-08-05T21:32:59.409Z,100978.56
2017-08-05T21:35:26.800Z,100981.44
2017-08-05T21:37:54.297Z,100983.78
2017-08-05T21:40:21.689Z,100984.54
2017-08-05T21:42:49.082Z,100977.19
2017-08-05T21:45:16.549Z,100983.45
2017-08-05T21:47:43.963Z,100983.37
2017-08-05T21:50:11.362Z,100981.86
2017-08-05T21:52:38.776Z,100981.30
2017-08-05T21:55:06.168Z,100982.27
2017-08-05T21:57:33.567Z,100981.21
2017-08-05T22:00:01.176Z,100984.12
2017-08-05T22:02:28.574Z,100982.59
2017-08-05T22:04:55.971Z,100988.86
2017-08-05T22:07:23.387Z,100980.84
2017-08-05T22:09:50.777Z,100985.41
2017-08-05T22:12:18.178Z,100991.42
2017-08-05T22:14:45.571Z,100990.62
2017-08-05T22:17:12.966Z,100993.86
2017-08-05T22:19:40.403Z,100994.66
2017-08-05T22:22:07.811Z,100998.61
2017-08-05T22:24:35.208Z,100995.28
2017-08-05T22:27:02.597Z,100998.77
2017-08-05T22:29:29.997Z,100994.75
2017-08-05T22:31:57.395Z,100995.91
2017-08-05T22:34:24.806Z,100999.81
2017-08-05T22:36:52.204Z,100999.77
2017-08-05T22:39:19.595Z,100995.04
2017-08-05T22:41:46.997Z,100998.61
2017-08-05T22:44:14.391Z,100998.34
2017-08-05T22:46:41.784Z,100999.23
2017-08-05T22:49:09.174Z,101002.28
2017-08-05T22:51:36.575Z,101000.66
2017-08-05T22:54:03.990Z,101001.16
2017-08-05T22:56:31.395Z,101010.19
2017-08-05T22:58:58.790Z,101010.89
2017-08-05T23:01:26.211Z,101017.30
2017-08-05T23:03:53.598Z,101021.87
2017-08-05T23:06:21.007Z,101018.98
2017-08-05T23:08:48.394Z,101017.38
2017-08-05T23:11:15.794Z,101025.98
2017-08-05T23:13:43.187Z,101038.61
2017-08-05T23:16:10.638Z,101036.39
2017-08-05T23:18:38.019Z,101043.66
2017-08-05T23:21:05.427Z,101044.70
2017-08-05T23:23:32.811Z,101037.68
2017-08-05T23:26:00.215Z,101039.28
2017-08-05T23:28:27.614Z,101046.14
2017-08-05T23:30:55.036Z,101046.69
2017-08-05T23:33:22.426Z,101044.94
2017-08-05T23:35:49.832Z,101048.86
2017-08-05T23:38:17.244Z,101055.63
2017-08-05T23:40:44.639Z,101061.58
2017-08-05T23:43:12.040Z,101059.78
2017-08-05T23:45:39.643Z,101065.10
2017-08-05T23:48:07.038Z,101069.50
2017-08-05T23:50:34.441Z,101072.58
2017-08-05T23:53:01.838Z,101074.31
2017-08-05T23:55:29.219Z,101075.42
2017-08-05T23:57:56.615Z,101072.25
